createdAt,value
2017-12-10T00:01:06.800Z,20.50
2017-12-10T00:03:34.308Z,17.23
2017-12-10T00:06:01.848Z,21.50
2017-12-10T00:08:29.429Z,20.40
2017-12-10T00:10:56.974Z,22.20
2017-12-10T00:13:24.507Z,21.17
2017-12-10T00:15:52.060Z,16.20
2017-12-10T00:18:19.648Z,19.00
2017-12-10T00:20:47.193Z,21.00
2017-12-10T00:23:14.794Z,22.37
2017-12-10T00:25:42.332Z,20.80
2017-12-10T00:28:09.876Z,21.60
2017-12-10T00:30:37.442Z,22.23
2017-12-10T00:33:05.266Z,20.77
2017-12-10T00:35:32.856Z,22.97
2017-12-10T00:38:00.397Z,23.97
2017-12-10T00:40:27.920Z,22.57
2017-12-10T00:42:55.489Z,23.47
2017-12-10T00:45:23.024Z,22.00
2017-12-10T00:47:50.572Z,22.00
2017-12-10T00:50:18.118Z,22.17
2017-12-10T00:52:45.679Z,24.13
2017-12-10T00:55:13.236Z,21.50
2017-12-10T00:57:40.843Z,23.47
2017-12-10T01:00:08.409Z,23.37
2017-12-10T01:02:35.953Z,16.50
2017-12-10T01:05:03.539Z,19.47
2017-12-10T01:07:31.064Z,22.67
2017-12-10T01:09:58.663Z,24.43
2017-12-10T01:12:26.197Z,22.53
2017-12-10T01:14:53.737Z,23.83
2017-12-10T01:17:21.335Z,22.10
2017-12-10T01:19:48.877Z,20.03
2017-12-10T01:22:16.446Z,22.17
2017-12-10T01:24:44.030Z,19.70
2017-12-10T01:27:11.591Z,25.17
2017-12-10T01:29:39.150Z,22.10
2017-12-10T01:32:06.718Z,16.70
2017-12-10T01:34:34.308Z,26.20
2017-12-10T01:37:01.863Z,23.87
2017-12-10T01:39:29.405Z,24.27
2017-12-10T01:41:57.024Z,25.20
2017-12-10T01:44:24.568Z,24.20
2017-12-10T01:46:52.114Z,25.03
2017-12-10T01:49:19.710Z,24.30
2017-12-10T01:51:47.246Z,24.40
2017-12-10T01:54:14.794Z,24.73
2017-12-10T01:56:42.425Z,23.67
2017-12-10T01:59:09.964Z,22.77
2017-12-10T02:01:37.506Z,21.27
2017-12-10T02:04:05.078Z,22.80
2017-12-10T02:06:32.670Z,22.13
2017-12-10T02:09:00.249Z,22.93
2017-12-10T02:11:27.802Z,23.30
2017-12-10T02:13:55.417Z,20.53
2017-12-10T02:16:22.974Z,22.17
2017-12-10T02:18:50.547Z,24.07
2017-12-10T02:21:18.165Z,20.10
2017-12-10T02:23:45.720Z,23.93
2017-12-10T02:26:13.334Z,19.77
2017-12-10T02:28:40.920Z,22.30
2017-12-10T02:31:08.521Z,20.63
2017-12-10T02:33:36.092Z,20.80
2017-12-10T02:36:03.781Z,19.23
2017-12-10T02:38:31.366Z,20.73
2017-12-10T02:40:58.924Z,22.93
2017-12-10T02:43:26.541Z,19.03
2017-12-10T02:45:54.123Z,22.23
2017-12-10T02:48:21.745Z,20.27
2017-12-10T02:50:49.351Z,20.60
2017-12-10T02:53:17.866Z,19.90
2017-12-10T02:55:45.448Z,20.10
2017-12-10T02:58:13.034Z,17.30
2017-12-10T03:00:40.573Z,21.93
2017-12-10T03:03:08.190Z,18.70
2017-12-10T03:05:35.758Z,20.30
2017-12-10T03:08:03.312Z,17.60
2017-12-10T03:10:30.949Z,21.73
2017-12-10T03:12:58.493Z,15.17
2017-12-10T03:15:26.057Z,21.40
2017-12-10T03:17:53.689Z,22.60
2017-12-10T03:20:21.252Z,23.93
2017-12-10T03:22:48.812Z,23.20
2017-12-10T03:25:16.468Z,20.73
2017-12-10T03:27:43.975Z,16.80
2017-12-10T03:30:11.545Z,20.07
2017-12-10T03:32:39.153Z,19.73
2017-12-10T03:35:06.720Z,20.13
2017-12-10T03:37:34.298Z,19.13
2017-12-10T03:40:01.878Z,20.57
2017-12-10T03:42:29.444Z,14.17
2017-12-10T03:44:56.997Z,19.23
2017-12-10T03:47:24.593Z,19.63
2017-12-10T03:49:52.142Z,20.00
2017-12-10T03:52:19.722Z,17.97
2017-12-10T03:54:47.302Z,18.47
2017-12-10T03:57:14.894Z,18.50
2017-12-10T03:59:42.432Z,17.67
2017-12-10T04:02:09.968Z,15.97
2017-12-10T04:04:37.557Z,18.07
2017-12-10T04:07:05.102Z,17.00
2017-12-10T04:09:32.629Z,15.90
2017-12-10T04:12:00.247Z,20.23
2017-12-10T04:14:27.790Z,16.93
2017-12-10T04:16:55.350Z,17.70
2017-12-10T04:19:22.936Z,18.00
2017-12-10T04:21:50.476Z,16.60
2017-12-10T04:24:18.032Z,17.83
2017-12-10T04:26:45.578Z,17.03
2017-12-10T04:29:13.125Z,16.90
2017-12-10T04:31:40.719Z,17.60
2017-12-10T04:34:08.264Z,14.10
2017-12-10T04:36:35.834Z,20.43
2017-12-10T04:39:03.499Z,18.20
2017-12-10T04:41:31.054Z,17.60
2017-12-10T04:43:58.604Z,18.20
2017-12-10T04:46:26.188Z,18.27
2017-12-10T04:48:53.781Z,17.07
2017-12-10T04:51:21.331Z,16.47
2017-12-10T04:53:48.888Z,16.37
2017-12-10T04:56:16.493Z,16.80
2017-12-10T04:58:44.041Z,16.43
2017-12-10T05:01:11.766Z,15.90
2017-12-10T05:03:39.388Z,17.80
2017-12-10T05:06:06.942Z,16.90
2017-12-10T05:08:34.498Z,16.23
2017-12-10T05:11:02.069Z,15.97
2017-12-10T05:13:29.680Z,18.10
2017-12-10T05:15:57.207Z,16.23
2017-12-10T05:18:24.789Z,15.90
2017-12-10T05:20:52.401Z,17.60
2017-12-10T05:23:19.954Z,16.90
2017-12-10T05:25:47.485Z,17.50
2017-12-10T05:28:15.069Z,17.00
2017-12-10T05:30:42.598Z,17.10
2017-12-10T05:33:10.134Z,18.27
2017-12-10T05:35:37.762Z,17.23
2017-12-10T05:38:05.324Z,17.70
2017-12-10T05:40:32.873Z,18.13
2017-12-10T05:43:00.463Z,19.77
2017-12-10T05:45:28.014Z,18.40
2017-12-10T05:47:55.617Z,18.20
2017-12-10T05:50:23.158Z,21.80
2017-12-10T05:52:50.693Z,20.00
2017-12-10T05:55:18.298Z,20.57
2017-12-10T05:57:45.846Z,21.03
2017-12-10T06:00:15.296Z,18.87
2017-12-10T06:02:42.880Z,20.40
2017-12-10T06:05:10.411Z,20.33
2017-12-10T06:07:39.553Z,19.10
2017-12-10T06:10:07.130Z,21.10
2017-12-10T06:12:34.682Z,19.47
2017-12-10T06:15:02.260Z,20.97
2017-12-10T06:17:29.801Z,21.50
2017-12-10T06:19:57.337Z,20.97
2017-12-10T06:22:24.914Z,19.47
2017-12-10T06:24:52.468Z,23.27
2017-12-10T06:27:19.996Z,20.00
2017-12-10T06:29:47.586Z,19.70
2017-12-10T06:32:15.121Z,23.07
2017-12-10T06:34:42.661Z,21.80
2017-12-10T06:37:10.222Z,21.30
2017-12-10T06:39:37.866Z,20.97
2017-12-10T06:42:05.410Z,17.30
2017-12-10T06:44:32.954Z,19.60
2017-12-10T06:47:00.542Z,17.80
2017-12-10T06:49:28.082Z,21.90
2017-12-10T06:51:55.629Z,19.93
2017-12-10T06:54:23.220Z,20.17
2017-12-10T06:56:50.751Z,21.00
2017-12-10T06:59:18.284Z,21.80
2017-12-10T07:01:45.880Z,19.70
2017-12-10T07:04:13.420Z,20.87
2017-12-10T07:06:40.982Z,19.67
2017-12-10T07:09:08.542Z,20.60
2017-12-10T07:11:36.150Z,23.33
2017-12-10T07:14:03.866Z,21.80
2017-12-10T07:16:31.402Z,23.00
2017-12-10T07:18:58.993Z,20.57
2017-12-10T07:21:26.549Z,22.60
2017-12-10T07:23:54.095Z,17.93
2017-12-10T07:26:21.735Z,20.77
2017-12-10T07:28:49.268Z,20.83
2017-12-10T07:31:16.779Z,21.10
2017-12-10T07:33:44.337Z,20.07
2017-12-10T07:36:11.886Z,21.40
2017-12-10T07:38:39.468Z,22.77
2017-12-10T07:41:07.003Z,19.30
2017-12-10T07:43:34.556Z,21.93
2017-12-10T07:46:02.136Z,20.80
2017-12-10T07:48:29.724Z,20.57
2017-12-10T07:50:57.270Z,19.47
2017-12-10T07:53:24.816Z,22.27
2017-12-10T07:55:52.401Z,22.73
2017-12-10T07:58:19.993Z,23.13
2017-12-10T08:00:47.605Z,22.80
2017-12-10T08:03:15.156Z,22.80
2017-12-10T08:05:42.768Z,21.70
2017-12-10T08:08:10.336Z,21.00
2017-12-10T08:10:37.869Z,22.93
2017-12-10T08:13:05.816Z,20.90
2017-12-10T08:15:33.333Z,21.73
2017-12-10T08:18:00.859Z,21.43
2017-12-10T08:20:28.427Z,21.37
2017-12-10T08:22:56.024Z,18.70
2017-12-10T08:25:23.552Z,18.50
2017-12-10T08:27:51.087Z,18.47
2017-12-10T08:30:18.649Z,18.50
2017-12-10T08:32:46.228Z,19.33
2017-12-10T08:35:13.756Z,18.70
2017-12-10T08:37:41.275Z,17.40
2017-12-10T08:40:08.866Z,16.50
2017-12-10T08:42:36.435Z,16.97
2017-12-10T08:45:03.960Z,15.30
2017-12-10T08:47:31.528Z,17.63
2017-12-10T08:49:59.068Z,15.57
2017-12-10T08:52:26.662Z,16.33
2017-12-10T08:54:54.195Z,17.10
2017-12-10T08:57:21.755Z,18.60
2017-12-10T08:59:49.361Z,16.03
2017-12-10T09:02:16.901Z,20.00
2017-12-10T09:04:44.465Z,30.77
2017-12-10T09:07:12.071Z,81.67
2017-12-10T09:09:39.596Z,29.70
2017-12-10T09:12:07.211Z,20.00
2017-12-10T09:14:34.816Z,25.83
2017-12-10T09:17:02.345Z,19.83
2017-12-10T09:19:29.894Z,20.40
2017-12-10T09:21:57.447Z,19.63
2017-12-10T09:24:24.984Z,18.43
2017-12-10T09:26:52.591Z,21.00
2017-12-10T09:29:20.128Z,19.60
2017-12-10T09:31:47.674Z,17.97
2017-12-10T09:34:15.263Z,20.07
2017-12-10T09:36:42.800Z,17.23
2017-12-10T09:39:10.328Z,15.37
2017-12-10T09:41:37.896Z,14.93
2017-12-10T09:44:05.438Z,20.20
2017-12-10T09:46:33.141Z,15.70
2017-12-10T09:49:00.689Z,15.83
2017-12-10T09:51:28.226Z,16.77
2017-12-10T09:53:55.804Z,17.07
2017-12-10T09:56:23.345Z,18.03
2017-12-10T09:58:50.884Z,15.63
2017-12-10T10:01:18.464Z,15.67
2017-12-10T10:03:45.995Z,14.53
2017-12-10T10:06:13.603Z,17.03
2017-12-10T10:08:41.152Z,14.83
2017-12-10T10:11:08.680Z,15.03
2017-12-10T10:13:36.246Z,15.40
2017-12-10T10:16:03.801Z,16.33
2017-12-10T10:18:31.358Z,13.27
2017-12-10T10:20:58.900Z,15.80
2017-12-10T10:23:26.489Z,12.80
2017-12-10T10:25:54.043Z,14.53
2017-12-10T10:28:21.577Z,11.90
2017-12-10T10:30:49.175Z,14.40
2017-12-10T10:33:16.715Z,9.97
2017-12-10T10:35:44.249Z,13.47
2017-12-10T10:38:11.894Z,8.77
2017-12-10T10:40:39.433Z,8.30
2017-12-10T10:43:06.979Z,14.77
2017-12-10T10:45:34.536Z,18.33
2017-12-10T10:48:02.063Z,11.20
2017-12-10T10:50:29.633Z,10.80
2017-12-10T10:52:57.173Z,7.70
2017-12-10T10:55:24.676Z,7.70
2017-12-10T10:57:52.262Z,7.83
2017-12-10T11:00:19.809Z,37.93
2017-12-10T11:02:47.348Z,10.77
2017-12-10T11:05:14.925Z,7.10
2017-12-10T11:07:42.449Z,7.60
2017-12-10T11:10:09.980Z,6.67
2017-12-10T11:12:37.618Z,8.77
2017-12-10T11:15:05.153Z,7.50
2017-12-10T11:17:32.741Z,8.00
2017-12-10T11:20:00.302Z,4.83
2017-12-10T11:22:27.834Z,6.83
2017-12-10T11:24:55.384Z,5.80
2017-12-10T11:27:22.931Z,7.17
2017-12-10T11:29:50.488Z,8.20
2017-12-10T11:32:18.020Z,6.33
2017-12-10T11:34:45.600Z,6.00
2017-12-10T11:37:13.151Z,7.47
2017-12-10T11:39:40.676Z,6.80
2017-12-10T11:42:08.261Z,6.87
2017-12-10T11:44:35.809Z,9.10
2017-12-10T11:47:03.344Z,7.70
2017-12-10T11:49:30.916Z,8.10
2017-12-10T11:51:58.498Z,7.40
2017-12-10T11:54:26.033Z,18.33
2017-12-10T11:56:53.551Z,23.73
2017-12-10T11:59:21.123Z,22.60
2017-12-10T12:01:48.700Z,14.63
2017-12-10T12:04:16.250Z,24.10
2017-12-10T12:06:43.818Z,19.73
2017-12-10T12:09:11.371Z,13.53
2017-12-10T12:11:38.969Z,38.93
2017-12-10T12:14:06.505Z,15.13
2017-12-10T12:16:34.110Z,16.63
2017-12-10T12:19:01.641Z,9.20
2017-12-10T12:21:29.159Z,26.33
2017-12-10T12:23:56.735Z,10.77
2017-12-10T12:26:24.295Z,13.30
2017-12-10T12:28:51.820Z,9.90
2017-12-10T12:31:19.456Z,9.97
2017-12-10T12:33:46.997Z,33.87
2017-12-10T12:36:14.564Z,18.00
2017-12-10T12:38:42.112Z,11.47
2017-12-10T12:41:09.708Z,12.87
2017-12-10T12:43:37.246Z,17.03
2017-12-10T12:46:04.798Z,15.57
2017-12-10T12:48:32.380Z,21.60
2017-12-10T12:50:59.951Z,14.03
2017-12-10T12:53:27.593Z,11.40
2017-12-10T12:55:55.136Z,11.27
2017-12-10T12:58:22.736Z,12.07
2017-12-10T13:00:50.735Z,12.80
2017-12-10T13:03:21.836Z,10.77
2017-12-10T13:05:49.589Z,14.43
2017-12-10T13:08:17.161Z,11.70
2017-12-10T13:10:44.813Z,13.53
2017-12-10T13:13:12.356Z,15.70
2017-12-10T13:15:39.880Z,12.37
2017-12-10T13:18:07.441Z,9.63
2017-12-10T13:20:34.981Z,15.00
2017-12-10T13:23:02.578Z,23.07
2017-12-10T13:25:30.123Z,14.37
2017-12-10T13:27:57.667Z,16.23
2017-12-10T13:30:25.225Z,14.73
2017-12-10T13:32:52.817Z,12.50
2017-12-10T13:35:20.365Z,15.70
2017-12-10T13:37:47.918Z,14.00
2017-12-10T13:40:15.489Z,14.93
2017-12-10T13:42:43.034Z,14.40
2017-12-10T13:45:10.626Z,18.07
2017-12-10T13:47:38.164Z,15.20
2017-12-10T13:50:05.702Z,12.90
2017-12-10T13:52:33.282Z,12.47
2017-12-10T13:55:00.857Z,12.93
2017-12-10T13:57:28.456Z,16.63
2017-12-10T13:59:55.994Z,9.10
2017-12-10T14:02:23.536Z,10.83
2017-12-10T14:04:51.160Z,11.50
2017-12-10T14:07:18.710Z,11.90
2017-12-10T14:09:46.253Z,9.40
2017-12-10T14:12:13.810Z,8.20
2017-12-10T14:14:41.362Z,13.47
2017-12-10T14:17:08.950Z,12.13
2017-12-10T14:19:36.496Z,12.17
2017-12-10T14:22:04.034Z,13.17
2017-12-10T14:24:31.657Z,15.30
2017-12-10T14:26:59.203Z,13.43
2017-12-10T14:29:26.733Z,7.80
2017-12-10T14:31:54.329Z,12.20
2017-12-10T14:34:21.861Z,12.87
2017-12-10T14:36:49.397Z,13.63
2017-12-10T14:39:16.948Z,12.50
2017-12-10T14:41:44.546Z,10.70
2017-12-10T14:44:12.068Z,9.17
2017-12-10T14:46:39.606Z,10.67
2017-12-10T14:49:07.195Z,9.10
2017-12-10T14:51:34.751Z,12.67
2017-12-10T14:54:02.334Z,8.77
2017-12-10T14:56:29.897Z,9.10
2017-12-10T14:58:57.448Z,10.93
2017-12-10T15:01:25.024Z,10.67
2017-12-10T15:03:52.580Z,13.10
2017-12-10T15:06:20.115Z,12.90
2017-12-10T15:08:47.709Z,13.50
2017-12-10T15:11:15.253Z,12.77
2017-12-10T15:13:42.801Z,13.80
2017-12-10T15:16:10.364Z,12.77
2017-12-10T15:18:37.969Z,13.40
2017-12-10T15:21:05.516Z,13.30
2017-12-10T15:23:33.073Z,13.40
2017-12-10T15:26:00.732Z,13.03
2017-12-10T15:28:28.286Z,11.27
2017-12-10T15:30:55.839Z,12.17
2017-12-10T15:33:23.457Z,10.83
2017-12-10T15:35:51.001Z,10.80
2017-12-10T15:38:18.536Z,8.17
2017-12-10T15:40:46.142Z,12.53
2017-12-10T15:43:13.681Z,14.40
2017-12-10T15:45:41.217Z,12.70
2017-12-10T15:48:08.837Z,15.00
2017-12-10T15:50:36.390Z,13.07
2017-12-10T15:53:03.920Z,28.37
2017-12-10T15:55:31.530Z,15.53
2017-12-10T15:57:59.065Z,16.70
2017-12-10T16:00:26.621Z,17.63
2017-12-10T16:02:54.196Z,8.50
2017-12-10T16:05:21.749Z,15.73
2017-12-10T16:07:49.289Z,16.33
2017-12-10T16:10:16.875Z,16.10
2017-12-10T16:12:44.406Z,16.83
2017-12-10T16:15:12.002Z,12.17
2017-12-10T16:17:39.614Z,15.90
2017-12-10T16:20:07.156Z,9.80
2017-12-10T16:22:34.690Z,14.10
2017-12-10T16:25:02.280Z,8.60
2017-12-10T16:27:29.834Z,14.20
2017-12-10T16:29:57.390Z,11.20
2017-12-10T16:32:24.983Z,15.63
2017-12-10T16:34:52.508Z,15.90
2017-12-10T16:37:20.049Z,16.43
2017-12-10T16:39:47.657Z,13.60
2017-12-10T16:42:15.207Z,16.53
2017-12-10T16:44:42.761Z,14.93
2017-12-10T16:47:10.321Z,16.60
2017-12-10T16:49:37.855Z,11.10
2017-12-10T16:52:05.420Z,14.80
2017-12-10T16:54:33.028Z,12.10
2017-12-10T16:57:00.606Z,13.90
2017-12-10T16:59:28.163Z,14.03
2017-12-10T17:01:55.704Z,13.33
2017-12-10T17:04:23.300Z,14.53
2017-12-10T17:06:51.160Z,19.67
2017-12-10T17:09:18.709Z,15.80
2017-12-10T17:11:46.328Z,9.93
2017-12-10T17:14:13.864Z,17.30
2017-12-10T17:16:41.418Z,18.63
2017-12-10T17:19:09.013Z,23.97
2017-12-10T17:21:36.579Z,18.60
2017-12-10T17:24:04.131Z,31.20
2017-12-10T17:26:31.717Z,24.43
2017-12-10T17:28:59.292Z,15.77
2017-12-10T17:31:26.813Z,19.90
2017-12-10T17:33:54.430Z,22.10
2017-12-10T17:36:21.995Z,18.50
2017-12-10T17:38:49.573Z,14.67
2017-12-10T17:41:17.104Z,9.93
2017-12-10T17:43:44.717Z,12.47
2017-12-10T17:46:12.241Z,12.40
2017-12-10T17:48:39.775Z,16.00
2017-12-10T17:51:07.400Z,24.60
2017-12-10T17:53:34.965Z,26.70
2017-12-10T17:56:02.528Z,18.40
2017-12-10T17:58:30.121Z,9.03
2017-12-10T18:00:57.667Z,17.90
2017-12-10T18:03:25.200Z,18.33
2017-12-10T18:05:52.767Z,15.33
2017-12-10T18:08:20.329Z,22.33
2017-12-10T18:10:47.857Z,21.20
2017-12-10T18:13:15.448Z,20.00
2017-12-10T18:15:42.978Z,24.33
2017-12-10T18:18:10.516Z,24.33
2017-12-10T18:20:38.096Z,21.13
2017-12-10T18:23:05.690Z,20.67
2017-12-10T18:25:33.230Z,21.60
2017-12-10T18:28:00.846Z,23.10
2017-12-10T18:30:28.380Z,23.90
2017-12-10T18:32:55.931Z,23.57
2017-12-10T18:35:23.589Z,26.97
2017-12-10T18:37:51.171Z,26.03
2017-12-10T18:40:18.717Z,36.53
2017-12-10T18:42:46.306Z,29.33
2017-12-10T18:45:13.864Z,29.40
2017-12-10T18:47:41.495Z,27.37
2017-12-10T18:50:09.036Z,27.83
2017-12-10T18:52:36.657Z,29.07
2017-12-10T18:55:04.236Z,28.50
2017-12-10T18:57:31.782Z,29.60
2017-12-10T18:59:59.304Z,28.20
2017-12-10T19:02:26.901Z,27.40
2017-12-10T19:04:54.424Z,30.07
2017-12-10T19:07:21.985Z,28.47
2017-12-10T19:09:49.588Z,26.70
2017-12-10T19:12:17.128Z,49.53
2017-12-10T19:14:44.683Z,57.70
2017-12-10T19:17:12.297Z,30.70
2017-12-10T19:19:39.849Z,31.20
2017-12-10T19:22:07.471Z,19.47
2017-12-10T19:24:35.053Z,36.43
2017-12-10T19:27:02.606Z,21.73
2017-12-10T19:29:30.206Z,41.73
2017-12-10T19:31:57.821Z,19.90
2017-12-10T19:34:25.370Z,32.60
2017-12-10T19:36:52.979Z,23.00
2017-12-10T19:39:20.525Z,21.70
2017-12-10T19:41:48.075Z,21.33
2017-12-10T19:44:15.645Z,19.50
2017-12-10T19:46:43.176Z,17.27
2017-12-10T19:49:10.796Z,17.60
2017-12-10T19:51:38.332Z,17.60
2017-12-10T19:54:05.927Z,18.00
2017-12-10T19:56:33.496Z,16.23
2017-12-10T19:59:01.050Z,17.23
2017-12-10T20:01:28.609Z,16.23
2017-12-10T20:04:00.053Z,16.17
2017-12-10T20:06:27.632Z,13.70
2017-12-10T20:08:55.219Z,13.27
2017-12-10T20:11:22.827Z,11.50
2017-12-10T20:13:50.400Z,14.03
2017-12-10T20:16:17.964Z,12.40
2017-12-10T20:18:45.578Z,13.53
2017-12-10T20:21:13.118Z,16.60
2017-12-10T20:23:40.661Z,13.53
2017-12-10T20:26:08.217Z,9.60
2017-12-10T20:28:35.765Z,11.07
2017-12-10T20:31:03.346Z,10.13
2017-12-10T20:33:30.894Z,9.90
2017-12-10T20:35:58.526Z,10.17
2017-12-10T20:38:26.052Z,8.07
2017-12-10T20:40:53.666Z,9.40
2017-12-10T20:43:21.230Z,9.77
2017-12-10T20:45:48.767Z,8.87
2017-12-10T20:48:16.348Z,9.17
2017-12-10T20:50:43.882Z,8.80
2017-12-10T20:53:11.417Z,10.30
2017-12-10T20:55:38.960Z,10.23
2017-12-10T20:58:06.613Z,10.23
2017-12-10T21:00:34.176Z,9.50
2017-12-10T21:03:01.705Z,9.10
2017-12-10T21:05:29.289Z,9.57
2017-12-10T21:07:56.824Z,8.70
2017-12-10T21:10:24.366Z,8.73
2017-12-10T21:12:51.957Z,8.57
2017-12-10T21:15:19.508Z,10.07
2017-12-10T21:17:47.069Z,10.53
2017-12-10T21:20:14.719Z,10.30
2017-12-10T21:22:42.228Z,10.93
2017-12-10T21:25:09.769Z,11.80
2017-12-10T21:27:37.403Z,9.50
2017-12-10T21:30:04.934Z,11.30
2017-12-10T21:32:32.473Z,11.20
2017-12-10T21:35:00.032Z,11.40
2017-12-10T21:37:27.590Z,12.13
2017-12-10T21:39:55.201Z,12.10
2017-12-10T21:42:22.754Z,13.33
2017-12-10T21:44:51.198Z,13.90
2017-12-10T21:47:18.804Z,13.50
2017-12-10T21:49:46.340Z,14.17
2017-12-10T21:52:13.889Z,14.03
2017-12-10T21:54:41.469Z,14.03
2017-12-10T21:57:09.021Z,14.77
2017-12-10T21:59:36.637Z,16.90
2017-12-10T22:02:04.173Z,14.73
2017-12-10T22:04:31.704Z,15.63
2017-12-10T22:06:59.298Z,17.47
2017-12-10T22:09:26.825Z,15.77
2017-12-10T22:11:54.359Z,18.90
2017-12-10T22:14:21.921Z,11.53
2017-12-10T22:16:49.520Z,19.73
2017-12-10T22:19:17.070Z,19.10
2017-12-10T22:21:44.636Z,18.40
2017-12-10T22:24:12.192Z,19.40
2017-12-10T22:26:39.802Z,17.50
2017-12-10T22:29:07.346Z,15.57
2017-12-10T22:31:34.910Z,13.77
2017-12-10T22:34:02.520Z,16.03
2017-12-10T22:36:30.067Z,17.70
2017-12-10T22:38:57.605Z,17.53
2017-12-10T22:41:25.193Z,17.60
2017-12-10T22:43:52.716Z,21.33
2017-12-10T22:46:20.254Z,16.60
2017-12-10T22:48:47.804Z,22.13
2017-12-10T22:51:15.436Z,17.60
2017-12-10T22:53:42.990Z,15.13
2017-12-10T22:56:10.508Z,14.20
2017-12-10T22:58:38.075Z,18.43
2017-12-10T23:01:05.587Z,13.60
2017-12-10T23:03:33.109Z,18.33
2017-12-10T23:06:00.681Z,20.90
2017-12-10T23:08:28.218Z,16.73
2017-12-10T23:10:55.741Z,20.70
2017-12-10T23:13:35.254Z,16.83
2017-12-10T23:16:02.821Z,16.20
2017-12-10T23:18:30.353Z,19.60
2017-12-10T23:20:57.943Z,20.10
2017-12-10T23:23:25.466Z,18.67
2017-12-10T23:25:52.992Z,20.10
2017-12-10T23:28:20.569Z,20.00
2017-12-10T23:30:48.131Z,18.27
2017-12-10T23:33:15.701Z,20.40
2017-12-10T23:35:43.249Z,16.07
2017-12-10T23:38:10.833Z,17.10
2017-12-10T23:40:38.360Z,12.73
2017-12-10T23:43:05.942Z,18.40
2017-12-10T23:45:33.513Z,16.70
2017-12-10T23:48:01.057Z,16.37
2017-12-10T23:50:28.613Z,18.27
2017-12-10T23:52:56.136Z,15.70
2017-12-10T23:55:23.695Z,16.83
2017-12-10T23:57:51.221Z,18.37
